createdAt,value
2022-07-29T00:01:03.703Z,3.27
2022-07-29T00:03:30.285Z,3.20
2022-07-29T00:05:56.955Z,3.67
2022-07-29T00:08:23.526Z,3.20
2022-07-29T00:10:50.457Z,3.33
2022-07-29T00:13:17.012Z,2.93
2022-07-29T00:15:43.519Z,3.70
2022-07-29T00:18:09.982Z,3.40
2022-07-29T00:20:36.477Z,2.85
2022-07-29T00:23:02.975Z,3.30
2022-07-29T00:25:29.491Z,2.77
2022-07-29T00:27:57.366Z,3.20
2022-07-29T00:30:24.036Z,3.40
2022-07-29T00:32:50.548Z,3.08
2022-07-29T00:35:35.250Z,3.00
2022-07-29T00:38:02.033Z,2.70
2022-07-29T00:40:28.730Z,2.47
2022-07-29T00:42:55.319Z,2.63
2022-07-29T00:45:23.134Z,3.10
2022-07-29T00:47:50.044Z,3.30
2022-07-29T00:50:16.825Z,2.73
2022-07-29T00:52:44.273Z,3.20
2022-07-29T00:55:15.087Z,3.13
2022-07-29T00:57:43.005Z,3.00
2022-07-29T01:00:12.765Z,3.08
2022-07-29T01:02:39.384Z,3.43
2022-07-29T01:05:06.853Z,3.40
2022-07-29T01:07:37.149Z,2.85
2022-07-29T01:10:06.222Z,3.60
2022-07-29T01:12:34.451Z,3.13
2022-07-29T01:15:03.436Z,3.20
2022-07-29T01:17:37.867Z,3.25
2022-07-29T01:20:10.464Z,3.80
2022-07-29T01:23:02.248Z,3.33
2022-07-29T01:25:56.021Z,3.83
2022-07-29T01:28:45.780Z,3.57
2022-07-29T01:31:39.653Z,3.55
2022-07-29T01:34:28.808Z,3.78
2022-07-29T01:37:30.646Z,3.85
2022-07-29T01:39:59.902Z,4.00
2022-07-29T01:42:36.442Z,3.40
2022-07-29T01:45:22.607Z,3.47
2022-07-29T01:47:52.114Z,3.72
2022-07-29T01:50:24.220Z,3.20
2022-07-29T01:52:55.269Z,3.40
2022-07-29T01:55:26.073Z,3.60
2022-07-29T01:57:52.829Z,3.72
2022-07-29T02:00:19.966Z,3.22
2022-07-29T02:02:49.965Z,3.38
2022-07-29T02:05:21.419Z,3.20
2022-07-29T02:07:50.105Z,3.40
2022-07-29T02:10:19.695Z,3.33
2022-07-29T02:12:54.861Z,2.67
2022-07-29T02:15:24.195Z,3.20
2022-07-29T02:17:55.803Z,3.83
2022-07-29T02:20:24.582Z,3.40
2022-07-29T02:22:53.068Z,2.78
2022-07-29T02:25:21.591Z,2.85
2022-07-29T02:27:51.522Z,3.22
2022-07-29T02:30:20.402Z,2.80
2022-07-29T02:32:49.432Z,3.00
2022-07-29T02:35:17.621Z,3.40
2022-07-29T02:37:46.535Z,3.20
2022-07-29T02:40:15.963Z,3.20
2022-07-29T02:42:44.801Z,3.17
2022-07-29T02:45:11.574Z,3.07
2022-07-29T02:47:44.610Z,3.30
2022-07-29T02:50:16.362Z,3.53
2022-07-29T02:52:46.280Z,3.35
2022-07-29T02:55:35.727Z,3.20
2022-07-29T02:58:06.620Z,3.50
2022-07-29T03:00:37.585Z,3.67
2022-07-29T03:03:07.785Z,3.53
2022-07-29T03:05:36.159Z,4.45
2022-07-29T03:08:10.004Z,4.07
2022-07-29T03:10:39.913Z,3.73
2022-07-29T03:13:08.808Z,3.63
2022-07-29T03:15:36.405Z,3.58
2022-07-29T03:18:03.393Z,3.63
2022-07-29T03:20:29.962Z,3.20
2022-07-29T03:22:56.405Z,3.43
2022-07-29T03:25:22.858Z,3.60
2022-07-29T03:27:50.940Z,3.42
2022-07-29T03:30:21.551Z,3.80
2022-07-29T03:32:48.536Z,4.25
2022-07-29T03:35:17.463Z,3.50
2022-07-29T03:37:45.414Z,3.72
2022-07-29T03:40:34.755Z,3.20
2022-07-29T03:43:02.888Z,3.60
2022-07-29T03:45:32.054Z,3.80
2022-07-29T03:48:03.245Z,4.00
2022-07-29T03:50:31.837Z,4.10
2022-07-29T03:52:58.702Z,3.35
2022-07-29T03:55:27.333Z,3.95
2022-07-29T03:57:54.516Z,3.97
2022-07-29T04:00:21.258Z,4.30
2022-07-29T04:02:49.746Z,4.10
2022-07-29T04:05:17.231Z,4.35
2022-07-29T04:07:48.006Z,3.97
2022-07-29T04:10:16.556Z,3.42
2022-07-29T04:12:43.254Z,3.57
2022-07-29T04:15:10.284Z,3.90
2022-07-29T04:17:36.742Z,3.40
2022-07-29T04:20:03.893Z,4.05
2022-07-29T04:22:30.529Z,3.88
2022-07-29T04:25:00.332Z,3.77
2022-07-29T04:27:30.108Z,3.90
2022-07-29T04:29:57.603Z,4.32
2022-07-29T04:32:25.429Z,5.15
2022-07-29T04:34:52.203Z,3.50
2022-07-29T04:37:18.679Z,3.40
2022-07-29T04:39:45.254Z,3.55
2022-07-29T04:42:11.740Z,3.88
2022-07-29T04:44:39.914Z,3.50
2022-07-29T04:47:10.193Z,3.58
2022-07-29T04:49:39.500Z,2.87
2022-07-29T04:52:06.944Z,3.45
2022-07-29T04:54:34.054Z,3.40
2022-07-29T04:57:00.560Z,3.60
2022-07-29T04:59:27.660Z,3.67
2022-07-29T05:01:54.259Z,3.40
2022-07-29T05:04:21.122Z,3.50
2022-07-29T05:06:47.793Z,3.40
2022-07-29T05:09:14.279Z,3.72
2022-07-29T05:11:40.805Z,3.25
2022-07-29T05:14:07.291Z,3.63
2022-07-29T05:16:34.456Z,3.40
2022-07-29T05:19:01.030Z,3.20
2022-07-29T05:21:27.541Z,3.20
2022-07-29T05:23:54.035Z,3.70
2022-07-29T05:26:20.527Z,3.73
2022-07-29T05:28:47.037Z,3.50
2022-07-29T05:31:15.573Z,2.80
2022-07-29T05:33:42.969Z,3.67
2022-07-29T05:36:09.821Z,3.10
2022-07-29T05:38:37.156Z,3.20
2022-07-29T05:41:04.964Z,3.28
2022-07-29T05:43:31.612Z,3.13
2022-07-29T05:45:58.571Z,3.17
2022-07-29T05:48:25.664Z,3.60
2022-07-29T05:50:52.245Z,3.90
2022-07-29T05:53:19.650Z,3.80
2022-07-29T05:55:50.534Z,3.28
2022-07-29T05:58:17.410Z,3.30
2022-07-29T06:00:44.347Z,3.40
2022-07-29T06:03:10.932Z,3.47
2022-07-29T06:05:37.682Z,4.47
2022-07-29T06:08:06.768Z,4.07
2022-07-29T06:10:33.567Z,3.72
2022-07-29T06:13:00.055Z,3.83
2022-07-29T06:15:26.542Z,3.80
2022-07-29T06:17:59.055Z,3.83
2022-07-29T06:20:31.242Z,3.90
2022-07-29T06:22:58.391Z,4.18
2022-07-29T06:25:24.870Z,4.10
2022-07-29T06:27:51.383Z,3.63
2022-07-29T06:30:17.959Z,3.78
2022-07-29T06:32:44.444Z,4.00
2022-07-29T06:35:40.927Z,3.97
2022-07-29T06:37:58.077Z,3.45
2022-07-29T06:40:45.315Z,4.60
2022-07-29T06:43:11.887Z,3.80
2022-07-29T06:45:42.027Z,4.05
2022-07-29T06:48:09.076Z,3.88
2022-07-29T06:50:35.614Z,4.10
2022-07-29T06:53:02.193Z,4.03
2022-07-29T06:55:28.695Z,3.55
2022-07-29T06:57:55.204Z,3.80
2022-07-29T07:00:21.779Z,3.65
2022-07-29T07:02:48.836Z,3.70
2022-07-29T07:05:15.491Z,3.70
2022-07-29T07:07:41.972Z,3.83
2022-07-29T07:10:08.825Z,3.40
2022-07-29T07:12:35.329Z,3.65
2022-07-29T07:15:01.836Z,3.58
2022-07-29T07:17:28.323Z,3.20
2022-07-29T07:19:54.799Z,3.92
2022-07-29T07:22:21.441Z,3.42
2022-07-29T07:24:47.917Z,4.65
2022-07-29T07:27:14.420Z,3.50
2022-07-29T07:29:42.127Z,3.80
2022-07-29T07:32:10.833Z,3.50
2022-07-29T07:34:38.756Z,3.95
2022-07-29T07:37:05.912Z,4.40
2022-07-29T07:39:32.443Z,3.95
2022-07-29T07:41:59.598Z,3.67
2022-07-29T07:44:26.184Z,3.40
2022-07-29T07:46:53.210Z,3.85
2022-07-29T07:49:21.325Z,3.72
2022-07-29T07:51:50.987Z,3.15
2022-07-29T07:54:18.431Z,3.70
2022-07-29T07:56:50.803Z,3.17
2022-07-29T07:59:19.828Z,3.25
2022-07-29T08:01:48.145Z,3.10
2022-07-29T08:04:27.361Z,3.50
2022-07-29T08:06:55.815Z,3.13
2022-07-29T08:09:29.207Z,3.20
2022-07-29T08:11:57.499Z,3.42
2022-07-29T08:14:24.050Z,3.05
2022-07-29T08:16:50.618Z,3.17
2022-07-29T08:19:17.211Z,2.67
2022-07-29T08:21:43.820Z,2.85
2022-07-29T08:24:30.921Z,2.80
2022-07-29T08:26:57.412Z,2.63
2022-07-29T08:29:23.871Z,2.80
2022-07-29T08:31:50.728Z,3.00
2022-07-29T08:34:17.501Z,3.20
2022-07-29T08:36:44.159Z,2.78
2022-07-29T08:39:16.762Z,2.30
2022-07-29T08:41:57.384Z,2.65
2022-07-29T08:44:29.705Z,2.27
2022-07-29T08:46:57.776Z,2.97
2022-07-29T08:49:24.326Z,2.60
2022-07-29T08:51:51.739Z,3.30
2022-07-29T08:54:19.616Z,2.88
2022-07-29T08:56:50.063Z,2.90
2022-07-29T08:59:17.977Z,3.08
2022-07-29T09:01:47.872Z,3.13
2022-07-29T09:04:16.071Z,3.15
2022-07-29T09:06:49.001Z,3.28
2022-07-29T10:04:48.172Z,2.25
2022-07-29T10:07:14.792Z,2.43
2022-07-29T10:09:55.534Z,1.88
2022-07-29T10:12:23.292Z,2.03
2022-07-29T10:14:51.431Z,2.85
2022-07-29T10:17:19.340Z,2.40
2022-07-29T10:19:46.206Z,1.70
2022-07-29T10:22:12.730Z,2.17
2022-07-29T10:24:39.672Z,1.90
2022-07-29T10:27:08.358Z,2.10
2022-07-29T10:29:35.221Z,2.17
2022-07-29T10:32:23.294Z,1.70
2022-07-29T10:34:58.992Z,2.40
2022-07-29T10:37:57.833Z,2.75
2022-07-29T10:41:02.712Z,1.83
2022-07-29T10:43:39.244Z,1.70
2022-07-29T10:46:09.514Z,1.30
2022-07-29T10:49:06.880Z,1.60
2022-07-29T10:52:02.520Z,1.95
2022-07-29T10:54:49.192Z,1.67
2022-07-29T10:57:53.776Z,2.08
2022-07-29T11:00:19.515Z,1.73
2022-07-29T11:02:50.179Z,1.92
2022-07-29T11:05:21.729Z,2.13
2022-07-29T11:08:12.515Z,2.08
2022-07-29T11:10:48.047Z,1.88
2022-07-29T11:13:44.663Z,1.80
2022-07-29T11:16:16.155Z,2.05
2022-07-29T11:19:13.952Z,2.25
2022-07-29T11:21:53.978Z,1.75
2022-07-29T11:24:28.717Z,1.90
2022-07-29T11:27:18.260Z,1.70
2022-07-29T11:29:58.639Z,2.10
2022-07-29T11:32:37.535Z,1.98
2022-07-29T11:35:18.436Z,1.85
2022-07-29T11:38:23.502Z,1.70
2022-07-29T11:41:25.372Z,1.73
2022-07-29T11:43:53.466Z,2.40
2022-07-29T11:46:53.971Z,2.50
2022-07-29T11:49:31.928Z,2.30
2022-07-29T11:52:02.647Z,2.10
2022-07-29T11:54:38.706Z,2.20
2022-07-29T11:57:22.240Z,2.53
2022-07-29T11:59:49.180Z,2.42
2022-07-29T12:02:37.539Z,1.85
2022-07-29T12:05:10.841Z,2.15
2022-07-29T12:07:39.095Z,1.97
2022-07-29T12:10:08.343Z,1.90
2022-07-29T12:12:39.700Z,2.42
2022-07-29T12:15:21.553Z,1.85
2022-07-29T12:17:49.192Z,3.70
2022-07-29T12:20:24.352Z,1.70
2022-07-29T12:22:51.938Z,1.80
2022-07-29T12:25:34.848Z,1.85
2022-07-29T12:28:04.554Z,1.92
2022-07-29T12:30:41.628Z,1.80
2022-07-29T12:33:23.107Z,1.87
2022-07-29T12:36:15.621Z,2.88
2022-07-29T12:38:44.393Z,1.58
2022-07-29T12:41:11.443Z,1.60
2022-07-29T12:43:38.208Z,1.55
2022-07-29T12:46:15.858Z,1.50
2022-07-29T12:48:44.174Z,1.45
2022-07-29T12:51:13.291Z,1.67
2022-07-29T12:53:40.029Z,1.10
2022-07-29T12:56:26.588Z,1.58
2022-07-29T12:58:54.058Z,1.13
2022-07-29T13:01:21.888Z,1.00
2022-07-29T13:03:56.693Z,1.10
2022-07-29T13:06:31.626Z,1.02
2022-07-29T13:09:02.569Z,1.45
2022-07-29T13:11:30.851Z,1.10
2022-07-29T13:14:06.853Z,1.83
2022-07-29T13:16:33.971Z,1.42
2022-07-29T13:19:10.184Z,1.20
2022-07-29T13:21:37.887Z,1.40
2022-07-29T13:24:05.649Z,1.43
2022-07-29T13:26:32.333Z,1.40
2022-07-29T13:28:58.930Z,1.20
2022-07-29T13:31:25.614Z,1.67
2022-07-29T13:33:52.106Z,1.50
2022-07-29T13:36:19.614Z,0.97
2022-07-29T13:38:46.090Z,1.30
2022-07-29T13:41:12.691Z,1.30
2022-07-29T13:43:39.301Z,1.20
2022-07-29T13:46:05.832Z,1.17
2022-07-29T13:48:32.429Z,1.20
2022-07-29T13:50:58.945Z,1.63
2022-07-29T13:53:26.795Z,1.20
2022-07-29T13:55:54.163Z,1.42
2022-07-29T13:58:20.718Z,1.42
2022-07-29T14:00:47.652Z,2.00
2022-07-29T14:03:14.153Z,1.52
2022-07-29T14:05:40.644Z,1.80
2022-07-29T14:08:07.184Z,1.40
2022-07-29T14:10:33.756Z,1.90
2022-07-29T14:13:00.234Z,1.60
2022-07-29T14:15:27.830Z,1.83
2022-07-29T14:17:54.403Z,1.95
2022-07-29T14:20:20.969Z,1.60
2022-07-29T14:22:48.073Z,1.60
2022-07-29T14:25:15.715Z,1.97
2022-07-29T14:27:44.212Z,2.03
2022-07-29T14:30:11.183Z,1.75
2022-07-29T14:32:37.744Z,2.58
2022-07-29T14:35:05.479Z,1.83
2022-07-29T14:37:39.866Z,1.53
2022-07-29T14:40:08.789Z,1.63
2022-07-29T14:42:35.355Z,2.10
2022-07-29T14:45:01.907Z,1.48
2022-07-29T14:47:28.482Z,1.58
2022-07-29T14:49:54.985Z,1.67
2022-07-29T14:52:21.756Z,1.80
2022-07-29T14:54:48.215Z,1.88
2022-07-29T14:57:14.983Z,1.67
2022-07-29T14:59:42.290Z,1.92
2022-07-29T15:02:09.315Z,2.20
2022-07-29T15:04:35.842Z,2.03
2022-07-29T15:07:02.709Z,1.77
2022-07-29T15:09:29.278Z,2.30
2022-07-29T15:11:56.152Z,2.10
2022-07-29T15:14:22.958Z,2.87
2022-07-29T15:16:49.586Z,3.38
2022-07-29T15:19:19.150Z,2.90
2022-07-29T15:21:59.564Z,3.55
2022-07-29T15:24:26.597Z,2.83
2022-07-29T15:26:53.281Z,2.60
2022-07-29T15:29:19.859Z,2.47
2022-07-29T15:31:46.495Z,2.63
2022-07-29T15:34:13.095Z,3.75
2022-07-29T15:36:52.035Z,2.53
2022-07-29T15:39:20.787Z,2.33
2022-07-29T15:41:47.505Z,2.70
2022-07-29T15:44:14.034Z,2.30
2022-07-29T15:46:59.901Z,2.45
2022-07-29T15:49:46.328Z,2.80
2022-07-29T15:52:16.739Z,2.43
2022-07-29T15:54:43.407Z,3.75
2022-07-29T15:57:10.648Z,8.43
2022-07-29T15:59:37.141Z,4.15
2022-07-29T16:02:04.952Z,2.08
2022-07-29T16:04:32.048Z,1.80
2022-07-29T16:06:59.042Z,2.17
2022-07-29T16:09:26.638Z,1.75
2022-07-29T16:11:54.043Z,1.58
2022-07-29T16:14:21.178Z,1.45
2022-07-29T16:16:48.225Z,1.60
2022-07-29T16:19:14.835Z,1.50
2022-07-29T16:21:41.329Z,1.63
2022-07-29T16:24:08.265Z,1.50
2022-07-29T16:26:35.358Z,1.70
2022-07-29T16:29:01.831Z,1.77
2022-07-29T16:31:28.563Z,1.60
2022-07-29T16:33:56.077Z,1.40
2022-07-29T16:36:23.410Z,1.75
2022-07-29T16:38:50.776Z,1.50
2022-07-29T16:41:17.372Z,1.13
2022-07-29T16:43:43.982Z,1.20
2022-07-29T16:46:17.805Z,1.92
2022-07-29T16:48:45.435Z,1.60
2022-07-29T16:51:12.136Z,1.50
2022-07-29T16:53:41.327Z,1.50
2022-07-29T16:56:08.570Z,1.30
2022-07-29T16:58:43.478Z,1.55
2022-07-29T17:01:10.993Z,1.42
2022-07-29T17:04:00.169Z,1.30
2022-07-29T17:06:29.626Z,1.70
2022-07-29T17:08:56.542Z,1.30
2022-07-29T17:11:23.041Z,1.75
2022-07-29T17:14:10.213Z,2.00
2022-07-29T17:16:36.927Z,1.30
2022-07-29T17:19:03.598Z,1.90
2022-07-29T17:21:30.067Z,1.50
2022-07-29T17:23:56.649Z,1.95
2022-07-29T17:26:23.159Z,1.80
2022-07-29T17:28:49.722Z,2.20
2022-07-29T17:31:16.373Z,1.77
2022-07-29T17:33:42.985Z,1.90
2022-07-29T17:36:24.622Z,1.98
2022-07-29T17:38:57.349Z,1.90
2022-07-29T17:41:24.929Z,2.13
2022-07-29T17:43:51.847Z,1.60
2022-07-29T17:46:19.506Z,1.60
2022-07-29T17:48:46.283Z,1.80
2022-07-29T17:51:13.028Z,1.48
2022-07-29T17:53:39.846Z,1.70
2022-07-29T17:56:06.407Z,2.00
2022-07-29T17:58:33.496Z,1.80
2022-07-29T18:01:00.416Z,2.40
2022-07-29T18:03:27.270Z,1.60
2022-07-29T18:05:53.878Z,1.90
2022-07-29T18:08:20.446Z,1.97
2022-07-29T18:10:46.935Z,2.00
2022-07-29T18:13:13.826Z,1.88
2022-07-29T18:15:40.972Z,2.22
2022-07-29T18:18:07.522Z,2.45
2022-07-29T18:20:34.363Z,1.90
2022-07-29T18:23:01.497Z,2.00
2022-07-29T18:25:28.942Z,1.90
2022-07-29T18:28:00.150Z,2.00
2022-07-29T18:30:27.567Z,2.22
2022-07-29T18:33:19.144Z,1.90
2022-07-29T18:35:40.771Z,2.10
2022-07-29T18:38:07.258Z,2.00
2022-07-29T18:40:33.822Z,1.73
2022-07-29T18:43:00.292Z,2.22
2022-07-29T18:45:28.743Z,1.60
2022-07-29T18:47:56.386Z,1.55
2022-07-29T18:50:28.840Z,1.98
2022-07-29T18:52:58.779Z,1.83
2022-07-29T18:55:26.264Z,2.05
2022-07-29T18:57:56.343Z,1.80
2022-07-29T19:00:24.425Z,1.92
2022-07-29T19:02:51.208Z,1.98
2022-07-29T19:05:18.156Z,2.17
2022-07-29T19:07:44.642Z,1.95
2022-07-29T19:10:11.751Z,1.90
2022-07-29T19:12:38.317Z,2.33
2022-07-29T19:15:05.000Z,2.13
2022-07-29T19:17:31.495Z,2.00
2022-07-29T19:19:58.114Z,1.70
2022-07-29T19:22:24.865Z,2.10
2022-07-29T19:24:51.515Z,2.10
2022-07-29T19:27:18.089Z,2.10
2022-07-29T19:29:44.991Z,1.98
2022-07-29T19:32:11.562Z,2.08
2022-07-29T19:34:38.317Z,2.13
2022-07-29T19:37:05.264Z,2.20
2022-07-29T19:39:35.165Z,1.92
2022-07-29T19:42:03.501Z,2.15
2022-07-29T19:44:30.190Z,2.40
2022-07-29T19:46:56.937Z,2.20
2022-07-29T19:49:23.796Z,2.60
2022-07-29T19:51:50.297Z,2.65
2022-07-29T19:54:20.347Z,2.60
2022-07-29T19:56:46.818Z,2.70
2022-07-29T19:59:13.328Z,2.50
2022-07-29T20:01:39.898Z,2.90
2022-07-29T20:04:06.456Z,2.90
2022-07-29T20:06:33.172Z,3.17
2022-07-29T20:08:59.753Z,3.72
2022-07-29T20:11:26.579Z,4.00
2022-07-29T20:13:53.097Z,3.22
2022-07-29T20:16:19.727Z,2.80
2022-07-29T20:18:46.290Z,2.90
2022-07-29T20:21:13.397Z,3.10
2022-07-29T20:23:39.886Z,2.80
2022-07-29T20:26:09.511Z,3.33
2022-07-29T20:28:37.101Z,2.90
2022-07-29T20:31:03.691Z,3.08
2022-07-29T20:33:30.317Z,3.40
2022-07-29T20:35:56.925Z,3.20
2022-07-29T20:38:23.428Z,3.10
2022-07-29T20:40:50.791Z,3.33
2022-07-29T20:43:17.308Z,3.75
2022-07-29T20:45:43.860Z,3.10
2022-07-29T20:48:10.619Z,3.40
2022-07-29T20:50:37.129Z,3.47
2022-07-29T20:53:03.649Z,4.18
2022-07-29T20:55:31.910Z,4.40
2022-07-29T20:57:58.712Z,3.95
2022-07-29T21:00:25.292Z,3.87
2022-07-29T21:02:51.924Z,4.53
2022-07-29T21:05:18.497Z,4.30
2022-07-29T21:07:45.110Z,3.42
2022-07-29T21:10:11.817Z,4.13
2022-07-29T21:12:38.397Z,4.20
2022-07-29T21:15:06.518Z,5.43
2022-07-29T21:17:38.962Z,3.67
2022-07-29T21:20:08.472Z,4.03
2022-07-29T21:22:35.036Z,4.10
2022-07-29T21:25:01.638Z,4.77
2022-07-29T21:27:46.973Z,4.40
2022-07-29T21:30:13.558Z,4.30
2022-07-29T21:32:40.227Z,4.40
2022-07-29T21:35:19.162Z,3.75
2022-07-29T21:37:53.781Z,4.20
2022-07-29T21:40:20.711Z,5.03
2022-07-29T21:42:47.186Z,4.28
2022-07-29T21:45:13.867Z,4.03
2022-07-29T21:47:40.358Z,4.50
2022-07-29T21:50:07.402Z,5.17
2022-07-29T21:52:33.934Z,5.10
2022-07-29T21:55:03.342Z,4.10
2022-07-29T21:57:29.986Z,4.85
2022-07-29T21:59:59.569Z,4.63
2022-07-29T22:02:29.115Z,4.47
2022-07-29T22:04:55.590Z,5.00
2022-07-29T22:07:22.062Z,4.78
2022-07-29T22:09:48.549Z,4.47
2022-07-29T22:12:15.035Z,3.90
2022-07-29T22:14:41.538Z,5.17
2022-07-29T22:17:08.172Z,5.03
2022-07-29T22:19:34.749Z,4.88
2022-07-29T22:22:01.320Z,5.25
2022-07-29T22:24:27.829Z,5.60
2022-07-29T22:26:54.291Z,5.43
2022-07-29T22:29:20.783Z,5.30
2022-07-29T22:31:47.245Z,5.00
2022-07-29T22:34:14.301Z,5.38
2022-07-29T22:36:41.148Z,4.95
2022-07-29T22:39:07.918Z,4.93
2022-07-29T22:41:34.446Z,5.30
2022-07-29T22:44:01.103Z,4.35
2022-07-29T22:46:27.775Z,4.38
2022-07-29T22:48:54.316Z,4.82
2022-07-29T22:51:21.051Z,5.23
2022-07-29T22:53:47.502Z,5.50
2022-07-29T22:56:14.272Z,4.85
2022-07-29T22:58:40.802Z,5.00
2022-07-29T23:01:07.401Z,5.70
2022-07-29T23:03:34.327Z,4.90
2022-07-29T23:06:00.934Z,4.75
2022-07-29T23:08:27.456Z,4.93
2022-07-29T23:10:53.934Z,4.60
2022-07-29T23:13:20.438Z,5.05
2022-07-29T23:15:46.912Z,5.83
2022-07-29T23:18:13.488Z,5.60
2022-07-29T23:20:40.333Z,5.68
2022-07-29T23:23:06.830Z,5.55
2022-07-29T23:25:33.306Z,4.97
2022-07-29T23:28:00.157Z,4.53
2022-07-29T23:30:28.925Z,5.00
2022-07-29T23:32:55.771Z,4.90
2022-07-29T23:35:23.066Z,4.93
2022-07-29T23:37:49.637Z,4.68
2022-07-29T23:40:16.410Z,4.70
2022-07-29T23:42:43.281Z,5.38
2022-07-29T23:45:10.935Z,4.85
2022-07-29T23:47:37.612Z,4.80
2022-07-29T23:50:05.592Z,5.25
2022-07-29T23:52:32.209Z,5.40
2022-07-29T23:55:37.333Z,4.95
2022-07-29T23:57:45.257Z,5.55
